Sochi International Airport
URSS : now visible

Airfield :











YOU CAN JOIN US ON...

 
LOGIN :

Register | Disclaimer

   EN    FR    IT 

 









Legend :    VFR   Marginal VFR   IFR   Intensive IFR   Very Intensive IFR
Visi :
Ceiling :
>= 8 km
>= 3000ft
5 to 8 km
1000 to 3000 ft
1500m to 5 km
500 to 1000 ft
800 to 1500m
200 to 500 ft
< 800m
< 200 ft
Symbols :   Thunderstorms  Fog  Heavy snow  Heavy precipitations  Wind > 20 kt






- Airport Elevation : 89 ft
- IATA code : AER


URSS - Sochi International

CURRENT METAR :
  • 041830Z 06001MPS 9999 NSC 08/07 Q1023 R02/010070 R06/010070 NOSIG RMK R06/04001MPS QFE766

EXPIRED METARs :
  • 041800Z 06001MPS 9999 NSC 08/07 Q1023 R02/010070 R06/010070 NOSIG RMK R06/08002MPS QFE766
  • 041730Z 06002MPS 9999 NSC 09/07 Q1023 R02/010070 R06/010070 NOSIG RMK R06/07002MPS QFE766
  • 041700Z 09001MPS 9999 NSC 10/08 Q1023 R02/010070 R06/010070 NOSIG RMK R06/00000MPS QFE766
  • 041630Z 16001MPS 9999 NSC 10/08 Q1023 R02/010070 R06/010070 NOSIG RMK R06/18001MPS QFE765
  • 041600Z 21002MPS 9999 NSC 10/08 Q1023 R02/010070 R06/010070 NOSIG RMK R06/23001MPS QFE766
  • 041530Z 21002MPS 9999 FEW025 11/08 Q1023 R02/010070 R06/010070 NOSIG RMK R06/24001MPS MT OBSC QFE766

TAF TAF URSS
Valid from the 04 at 18:00 until the 05 at 18:00 UTC


041656Z 0418/0518 04005MPS 9999 SCT100
BECMG 0507/0508 27006MPS
BECMG 0516/0517 05005MPS BKN100



MET'MAP, your aeronautical weather chart ! - Copyright ORBIFLY December 2007 - Disclaimer

ORBIFLY MET'MAP TEAM :

Programming & Development : Alexandra Zaïnal
Concept & original design : Baudouin d'Aumeries
Assistance for programming : Marc-Olivier Méhu
Technical & hardware support : Manuel Goepfert

Contact : metmap@orbifly.com




SOURCES & CREDITS :

   NOAA       Earth
Advisory